Time;durP1;ratioP1;P1;durP2;ratioP2;P2;SDS_P1;SDS_P2;PMS_P1;PMS_P2;Temp;Humidity;BMP_temperature;BMP_pressure;BME280_temperature;BME280_humidity;BME280_pressure;Samples;Min_cycle;Max_cycle;Signal;HPM_P1;HPM_P2
2023/12/20 00:02:11;;;;;;;2.27;2.17;;;4.50;99.90;;;;;;5116055;28;20600;-87
2023/12/20 00:04:37;;;;;;;2.53;2.43;;;4.40;99.90;;;;;;5116872;28;20625;-87
2023/12/20 00:07:02;;;;;;;2.53;2.40;;;4.40;99.90;;;;;;5115653;28;20192;-87
2023/12/20 00:09:28;;;;;;;2.57;2.37;;;4.40;99.90;;;;;;5116457;28;20172;-87
2023/12/20 00:11:53;;;;;;;2.57;2.43;;;4.40;99.90;;;;;;5116821;28;20255;-87
2023/12/20 00:14:20;;;;;;;2.77;2.57;;;4.40;99.90;;;;;;5115460;28;20183;-87
2023/12/20 00:16:45;;;;;;;2.47;2.27;;;4.40;99.90;;;;;;5115706;28;20196;-87
2023/12/20 00:19:11;;;;;;;2.13;2.03;;;4.40;99.90;;;;;;5115503;28;20272;-87
2023/12/20 00:21:36;;;;;;;2.67;2.20;;;4.40;99.90;;;;;;5115513;28;20199;-87
2023/12/20 00:24:02;;;;;;;2.20;2.10;;;4.50;99.90;;;;;;5115705;28;20183;-87
2023/12/20 00:26:28;;;;;;;2.47;2.37;;;4.50;99.90;;;;;;5115148;28;20265;-87
2023/12/20 00:28:53;;;;;;;2.30;2.20;;;4.50;99.90;;;;;;5115122;28;20172;-87
2023/12/20 00:31:19;;;;;;;2.40;2.30;;;4.50;99.90;;;;;;5115234;28;20164;-87
2023/12/20 00:33:46;;;;;;;2.30;2.20;;;4.50;99.90;;;;;;5115138;28;20184;-87
2023/12/20 00:36:11;;;;;;;2.80;2.60;;;4.50;99.90;;;;;;5116173;28;20564;-87
2023/12/20 00:38:37;;;;;;;2.53;2.27;;;4.50;99.90;;;;;;5115171;28;20214;-87
2023/12/20 00:41:02;;;;;;;2.47;2.37;;;4.50;99.90;;;;;;5114973;28;20204;-87
2023/12/20 00:43:28;;;;;;;2.50;2.30;;;4.50;99.90;;;;;;5114481;28;20275;-87
2023/12/20 00:45:55;;;;;;;5.80;2.30;;;4.50;99.90;;;;;;5115185;28;20191;-87
2023/12/20 00:48:20;;;;;;;2.40;2.30;;;4.50;99.90;;;;;;5115144;28;20192;-87
2023/12/20 00:50:46;;;;;;;2.90;2.70;;;4.50;99.90;;;;;;5114591;28;20200;-87
2023/12/20 00:53:12;;;;;;;2.43;2.23;;;4.50;99.90;;;;;;5115594;28;20213;-87
2023/12/20 00:55:37;;;;;;;2.50;2.33;;;4.50;99.90;;;;;;5115185;28;20180;-87
2023/12/20 00:58:03;;;;;;;2.70;2.50;;;4.50;99.90;;;;;;5114703;28;20578;-87
2023/12/20 01:00:29;;;;;;;2.00;1.90;;;4.50;99.90;;;;;;5114774;28;20226;-88
2023/12/20 01:02:54;;;;;;;2.20;2.10;;;4.50;99.90;;;;;;5114923;28;20264;-88
2023/12/20 01:05:22;;;;;;;2.30;2.20;;;4.40;99.90;;;;;;5115709;28;20498;-88
2023/12/20 01:07:48;;;;;;;2.20;2.10;;;4.50;99.90;;;;;;5114508;28;20215;-87
2023/12/20 01:10:14;;;;;;;2.40;2.30;;;4.50;99.90;;;;;;5114424;28;20237;-88
2023/12/20 01:12:40;;;;;;;4.93;1.90;;;4.50;99.90;;;;;;5114407;28;20275;-88
2023/12/20 01:15:06;;;;;;;2.10;1.90;;;4.50;99.90;;;;;;5114341;28;20207;-88
2023/12/20 01:17:32;;;;;;;2.13;1.80;;;4.40;99.90;;;;;;5114486;28;20249;-88
2023/12/20 01:19:58;;;;;;;2.47;1.70;;;4.50;99.90;;;;;;5114192;28;20182;-88
2023/12/20 01:22:23;;;;;;;1.70;1.60;;;4.50;99.90;;;;;;5114177;28;20172;-88
2023/12/20 01:24:49;;;;;;;2.77;1.57;;;4.50;99.90;;;;;;5114472;28;20206;-88
2023/12/20 01:27:15;;;;;;;1.40;1.30;;;4.50;99.90;;;;;;5114405;28;20202;-87
2023/12/20 01:29:40;;;;;;;1.67;1.57;;;4.40;99.90;;;;;;5114064;28;20547;-87
2023/12/20 01:32:06;;;;;;;1.40;1.40;;;4.50;99.90;;;;;;5113985;28;20209;-87
2023/12/20 01:34:32;;;;;;;1.50;1.40;;;4.40;99.90;;;;;;5113990;28;20724;-87
2023/12/20 01:36:57;;;;;;;3.73;1.40;;;4.40;99.90;;;;;;5114096;28;20313;-88
2023/12/20 01:39:23;;;;;;;1.30;1.30;;;4.40;99.90;;;;;;5113719;28;20176;-88
2023/12/20 01:41:49;;;;;;;1.30;1.30;;;4.40;99.90;;;;;;5113705;28;20344;-88
2023/12/20 01:44:14;;;;;;;1.20;1.20;;;4.40;99.90;;;;;;5114670;28;20198;-88
2023/12/20 01:46:40;;;;;;;1.30;1.30;;;4.40;99.90;;;;;;5113606;28;20192;-87
2023/12/20 01:49:06;;;;;;;1.10;1.10;;;4.50;99.90;;;;;;5113852;28;20226;-87
2023/12/20 01:51:33;;;;;;;1.50;1.40;;;4.40;99.90;;;;;;5114089;28;20188;-87
2023/12/20 01:54:00;;;;;;;1.40;1.40;;;4.40;99.90;;;;;;5113949;28;20180;-87
2023/12/20 01:56:29;;;;;;;1.17;1.17;;;4.40;99.90;;;;;;5113926;28;20274;-86
2023/12/20 01:58:56;;;;;;;1.37;1.27;;;4.40;99.90;;;;;;5114091;28;20176;-87
2023/12/20 02:43:04;;;;;;;0.90;0.90;;;4.40;99.90;;;;;;4935324;29;20293;-85
2023/12/20 02:45:30;;;;;;;1.30;1.20;;;4.40;99.90;;;;;;4936170;29;20179;-84
2023/12/20 02:47:55;;;;;;;1.00;1.00;;;4.40;99.90;;;;;;4935371;29;20230;-85
2023/12/20 02:50:21;;;;;;;1.00;1.00;;;4.40;99.90;;;;;;4919700;29;20182;-86
2023/12/20 02:52:47;;;;;;;0.80;0.80;;;4.40;99.90;;;;;;4919324;29;20261;-85
2023/12/20 02:55:12;;;;;;;0.90;0.90;;;4.40;99.90;;;;;;4919077;29;20273;-85
2023/12/20 02:57:41;;;;;;;1.30;1.20;;;4.40;99.90;;;;;;4919415;29;20209;-85
2023/12/20 03:00:09;;;;;;;1.00;1.00;;;4.40;99.90;;;;;;4935956;29;20182;-85
2023/12/20 03:02:34;;;;;;;1.07;1.07;;;4.40;99.90;;;;;;4919043;29;20201;-85
2023/12/20 03:05:00;;;;;;;1.00;1.00;;;4.40;99.90;;;;;;4919154;29;20685;-85
2023/12/20 03:07:26;;;;;;;0.70;0.70;;;4.40;99.90;;;;;;4921841;29;20209;-85
2023/12/20 03:09:52;;;;;;;1.00;1.00;;;4.40;99.90;;;;;;4923038;29;20178;-85
2023/12/20 03:12:17;;;;;;;0.90;0.90;;;4.40;99.90;;;;;;4923364;29;20181;-85
2023/12/20 03:14:44;;;;;;;0.90;0.90;;;4.40;99.90;;;;;;4922864;29;20185;-85
2023/12/20 03:17:09;;;;;;;1.97;0.80;;;4.40;99.90;;;;;;4922751;29;20202;-85
2023/12/20 03:19:35;;;;;;;1.00;1.00;;;4.30;99.90;;;;;;4923613;29;20193;-85
2023/12/20 03:22:01;;;;;;;0.83;0.83;;;4.40;99.90;;;;;;4923512;29;20202;-85
2023/12/20 03:24:26;;;;;;;1.60;0.80;;;4.30;99.90;;;;;;4923255;29;20183;-85
2023/12/20 03:26:52;;;;;;;0.80;0.80;;;4.30;99.90;;;;;;4923089;29;20208;-85
2023/12/20 03:29:18;;;;;;;0.80;0.80;;;4.30;99.90;;;;;;4923489;29;20174;-85
2023/12/20 03:31:46;;;;;;;0.67;0.67;;;4.30;99.90;;;;;;4922705;29;20180;-85
2023/12/20 03:34:12;;;;;;;1.07;1.03;;;4.30;99.90;;;;;;4922791;29;20229;-85
2023/12/20 03:36:37;;;;;;;0.70;0.70;;;4.30;99.90;;;;;;4922628;29;20234;-85
2023/12/20 03:39:03;;;;;;;0.80;0.80;;;4.30;99.90;;;;;;4922376;29;20612;-85
2023/12/20 03:41:28;;;;;;;0.83;0.83;;;4.30;99.90;;;;;;4922734;29;20206;-85
2023/12/20 03:43:54;;;;;;;0.67;0.67;;;4.40;99.90;;;;;;4923537;29;20186;-85
2023/12/20 03:46:20;;;;;;;0.90;0.90;;;4.40;99.90;;;;;;4922291;29;20194;-85
2023/12/20 03:48:45;;;;;;;0.67;0.67;;;4.40;99.90;;;;;;4922493;29;20186;-85
2023/12/20 03:51:11;;;;;;;1.27;0.80;;;4.40;99.90;;;;;;4922467;29;20188;-85
2023/12/20 03:53:36;;;;;;;0.80;0.80;;;4.50;99.90;;;;;;4922333;29;20651;-85
2023/12/20 03:56:02;;;;;;;1.00;1.00;;;4.50;99.90;;;;;;4922674;29;20262;-85
2023/12/20 03:58:27;;;;;;;0.73;0.73;;;4.50;99.90;;;;;;4922357;29;20206;-85
2023/12/20 04:00:53;;;;;;;1.00;1.00;;;4.50;99.90;;;;;;4922620;29;20217;-85
2023/12/20 04:03:19;;;;;;;1.20;1.20;;;4.50;99.90;;;;;;4922497;29;20257;-85
2023/12/20 04:05:44;;;;;;;1.00;1.00;;;4.50;99.90;;;;;;4922606;29;20174;-85
2023/12/20 04:08:10;;;;;;;1.10;1.10;;;4.50;99.90;;;;;;4923763;29;20202;-85
2023/12/20 04:10:37;;;;;;;1.13;1.13;;;4.50;99.90;;;;;;4939465;29;20201;-85
2023/12/20 04:13:03;;;;;;;1.30;1.30;;;4.60;99.90;;;;;;4922710;29;20194;-85
2023/12/20 04:15:28;;;;;;;1.60;1.50;;;4.60;99.90;;;;;;4922408;29;20295;-85
2023/12/20 04:17:54;;;;;;;1.73;1.63;;;4.60;99.90;;;;;;4923070;29;20271;-85
2023/12/20 04:20:19;;;;;;;1.87;1.80;;;4.60;99.90;;;;;;4921519;29;20182;-85
2023/12/20 04:22:45;;;;;;;1.60;1.50;;;4.70;99.90;;;;;;4921714;29;20193;-85
2023/12/20 04:25:11;;;;;;;1.87;1.77;;;4.60;99.90;;;;;;4921593;29;20210;-85
2023/12/20 04:27:36;;;;;;;1.80;1.70;;;4.70;99.90;;;;;;4922076;29;20234;-85
2023/12/20 04:30:02;;;;;;;2.27;2.17;;;4.70;99.90;;;;;;4921853;29;20190;-85
2023/12/20 04:32:27;;;;;;;2.20;2.10;;;4.70;99.90;;;;;;4921589;29;20181;-85
2023/12/20 04:34:53;;;;;;;2.30;2.20;;;4.60;99.90;;;;;;4921987;29;20186;-85
2023/12/20 04:37:19;;;;;;;2.40;2.30;;;4.60;99.90;;;;;;4921455;29;20230;-84
2023/12/20 04:39:44;;;;;;;2.40;2.30;;;4.70;99.90;;;;;;4930812;29;20190;-84
2023/12/20 04:42:10;;;;;;;3.53;2.43;;;4.70;99.90;;;;;;4921340;29;20213;-84
2023/12/20 04:44:35;;;;;;;6.53;5.93;;;4.70;99.90;;;;;;4921323;29;20189;-84
2023/12/20 04:47:01;;;;;;;346.70;224.83;;;4.70;99.90;;;;;;4921213;29;20203;-84
2023/12/20 04:49:27;;;;;;;351.30;207.07;;;4.70;99.90;;;;;;4922372;29;20217;-84
2023/12/20 04:51:52;;;;;;;38.20;29.77;;;4.70;99.90;;;;;;4921822;29;20221;-84
2023/12/20 04:54:18;;;;;;;26.70;24.20;;;4.70;99.90;;;;;;4921097;29;20190;-84
2023/12/20 04:56:47;;;;;;;14.40;13.10;;;4.70;99.90;;;;;;4921242;29;20206;-84
2023/12/20 04:59:13;;;;;;;9.17;8.37;;;4.70;99.90;;;;;;4921354;29;20274;-84
2023/12/20 05:01:38;;;;;;;7.37;6.77;;;4.70;99.90;;;;;;4921001;29;20221;-84
2023/12/20 05:04:04;;;;;;;9.17;8.47;;;4.70;99.90;;;;;;4921327;29;20179;-84
2023/12/20 05:06:29;;;;;;;5.80;5.40;;;4.60;99.90;;;;;;4920910;29;20206;-84
2023/12/20 05:08:55;;;;;;;4.30;4.00;;;4.70;99.90;;;;;;4937332;29;20193;-84
2023/12/20 05:11:21;;;;;;;3.90;3.60;;;4.70;99.90;;;;;;4921690;29;20246;-84
2023/12/20 05:13:46;;;;;;;3.43;3.23;;;4.70;99.90;;;;;;4920991;29;20318;-84
2023/12/20 05:16:13;;;;;;;6.50;6.00;;;4.60;99.90;;;;;;4920620;29;20197;-84
2023/12/20 05:18:39;;;;;;;2.93;2.73;;;4.50;99.90;;;;;;4921028;29;20185;-84
2023/12/20 05:21:05;;;;;;;2.60;2.50;;;4.30;99.90;;;;;;4920591;29;20253;-84
2023/12/20 05:23:30;;;;;;;3.50;2.80;;;4.30;99.90;;;;;;4920569;29;20241;-85
2023/12/20 05:25:56;;;;;;;3.40;3.20;;;4.10;99.90;;;;;;4920539;29;20189;-85
2023/12/20 05:28:21;;;;;;;3.50;3.30;;;4.00;99.90;;;;;;4920476;29;20206;-84
2023/12/20 05:30:47;;;;;;;2.37;2.27;;;3.90;99.90;;;;;;4919542;29;20189;-84
2023/12/20 05:33:12;;;;;;;3.10;2.90;;;3.90;99.90;;;;;;4920795;29;20187;-84
2023/12/20 05:35:38;;;;;;;2.83;2.50;;;3.90;99.90;;;;;;4920721;29;20190;-85
2023/12/20 05:38:03;;;;;;;2.53;2.33;;;3.80;99.90;;;;;;4920272;29;20233;-84
2023/12/20 05:40:29;;;;;;;2.20;2.10;;;3.80;99.90;;;;;;4936572;29;20675;-84
2023/12/20 05:42:55;;;;;;;2.03;1.93;;;3.80;99.90;;;;;;4936318;29;20187;-84
2023/12/20 05:45:20;;;;;;;3.40;2.20;;;3.80;99.90;;;;;;4920280;29;20190;-84
2023/12/20 05:47:46;;;;;;;2.57;2.37;;;3.90;99.90;;;;;;4920439;29;20198;-85
2023/12/20 05:50:14;;;;;;;2.73;2.53;;;4.00;99.90;;;;;;4920085;29;20174;-85
2023/12/20 05:52:50;;;;;;;2.80;2.60;;;4.10;99.90;;;;;;4920104;29;20186;-85
2023/12/20 05:55:15;;;;;;;2.50;2.40;;;4.20;99.90;;;;;;4920987;29;20211;-85
2023/12/20 05:57:43;;;;;;;3.50;2.90;;;4.30;99.90;;;;;;4920157;29;20238;-84
2023/12/20 06:00:09;;;;;;;3.27;2.97;;;4.30;99.90;;;;;;4920813;29;20186;-84
2023/12/20 06:02:36;;;;;;;6.63;3.67;;;4.30;99.90;;;;;;4919875;29;20567;-84
2023/12/20 06:05:04;;;;;;;5.20;3.77;;;4.20;99.90;;;;;;4920906;29;20189;-84
2023/12/20 06:07:30;;;;;;;7.50;6.90;;;4.20;99.90;;;;;;4936410;29;20250;-85
2023/12/20 06:10:23;;;;;;;4.23;3.87;;;4.20;99.90;;;;;;4919901;29;20218;-85
2023/12/20 06:12:51;;;;;;;8.50;7.80;;;4.10;99.90;;;;;;4919792;29;20182;-84
2023/12/20 06:15:16;;;;;;;7.60;7.00;;;4.10;99.90;;;;;;4919769;29;20205;-84
2023/12/20 06:17:42;;;;;;;9.10;8.30;;;4.00;99.90;;;;;;4920649;29;20210;-85
2023/12/20 06:20:08;;;;;;;6.50;5.43;;;3.90;99.90;;;;;;4919644;29;20182;-85
2023/12/20 06:22:35;;;;;;;5.43;4.50;;;3.80;99.90;;;;;;4919576;29;20229;-85
2023/12/20 06:25:00;;;;;;;4.67;4.27;;;3.70;99.90;;;;;;4920464;29;20694;-85
2023/12/20 06:27:41;;;;;;;5.50;5.00;;;3.60;99.90;;;;;;4919523;29;20229;-85
2023/12/20 06:30:09;;;;;;;6.90;6.20;;;3.70;99.90;;;;;;4920161;29;20189;-84
2023/12/20 06:32:34;;;;;;;5.57;5.07;;;3.70;99.90;;;;;;4919458;29;20181;-84
2023/12/20 06:35:31;;;;;;;5.37;4.90;;;3.80;99.90;;;;;;4919645;29;20174;-84
2023/12/20 06:37:57;;;;;;;9.70;5.97;;;3.80;99.90;;;;;;4919221;29;20198;-84
2023/12/20 06:40:22;;;;;;;7.03;4.33;;;3.90;99.90;;;;;;4919167;29;20194;-84
2023/12/20 06:42:48;;;;;;;4.27;3.90;;;4.00;99.90;;;;;;4918903;29;20276;-84
2023/12/20 06:45:14;;;;;;;4.27;3.90;;;4.20;99.90;;;;;;4919840;29;20167;-84
2023/12/20 06:47:39;;;;;;;6.87;4.20;;;4.20;99.90;;;;;;4919463;29;20257;-84
2023/12/20 06:50:05;;;;;;;4.53;4.00;;;4.30;99.90;;;;;;4919289;29;20193;-85
2023/12/20 06:52:32;;;;;;;5.60;4.13;;;4.30;99.90;;;;;;4920290;29;20202;-85
2023/12/20 06:54:58;;;;;;;7.80;4.57;;;4.30;99.90;;;;;;4919477;29;20254;-85
2023/12/20 06:57:25;;;;;;;6.27;4.30;;;4.20;99.90;;;;;;4919296;29;20206;-84
2023/12/20 06:59:52;;;;;;;6.27;4.33;;;4.10;99.90;;;;;;4919521;29;20183;-85
2023/12/20 07:02:17;;;;;;;5.43;4.87;;;3.90;99.90;;;;;;4919032;29;20210;-84
2023/12/20 07:04:43;;;;;;;6.27;5.30;;;3.80;99.90;;;;;;4919344;29;20179;-84
2023/12/20 07:07:09;;;;;;;6.87;6.27;;;3.60;99.90;;;;;;4918990;29;20209;-84
2023/12/20 07:09:34;;;;;;;5.87;5.27;;;3.50;99.90;;;;;;4919098;29;20233;-85
2023/12/20 07:12:00;;;;;;;7.83;5.90;;;3.40;99.90;;;;;;4936063;29;20236;-85
2023/12/20 07:14:26;;;;;;;8.13;6.40;;;3.30;99.90;;;;;;4919453;29;20186;-84
2023/12/20 07:16:51;;;;;;;6.57;6.00;;;3.20;99.90;;;;;;4935094;29;20194;-84
2023/12/20 07:19:17;;;;;;;7.13;5.70;;;3.20;99.90;;;;;;4918989;29;20316;-84
2023/12/20 07:21:43;;;;;;;9.40;5.20;;;3.10;99.90;;;;;;4918953;29;20236;-84
2023/12/20 07:24:08;;;;;;;8.23;5.80;;;3.10;99.90;;;;;;4936037;29;20662;-84
2023/12/20 07:26:35;;;;;;;8.63;6.10;;;3.10;99.90;;;;;;4919299;29;20198;-84
2023/12/20 07:29:00;;;;;;;9.47;8.57;;;3.00;99.90;;;;;;4918880;29;20182;-84
2023/12/20 07:31:26;;;;;;;7.03;6.20;;;3.00;99.90;;;;;;4934767;29;20212;-84
2023/12/20 07:33:52;;;;;;;16.80;15.13;;;3.10;99.90;;;;;;4919337;29;20531;-84
2023/12/20 07:36:19;;;;;;;17.40;15.70;;;3.10;99.90;;;;;;4918870;29;20675;-84
2023/12/20 07:38:45;;;;;;;32.83;29.50;;;3.20;99.90;;;;;;4934992;29;20190;-84
2023/12/20 07:41:11;;;;;;;44.87;40.23;;;3.40;99.90;;;;;;4918673;29;20765;-84
2023/12/20 07:43:36;;;;;;;56.23;50.43;;;3.50;99.90;;;;;;4919537;29;20205;-84
2023/12/20 07:46:06;;;;;;;88.83;79.87;;;3.60;99.90;;;;;;4919935;29;20185;-84
2023/12/20 07:48:34;;;;;;;69.17;62.20;;;3.60;99.90;;;;;;4934910;29;20294;-84
2023/12/20 07:51:00;;;;;;;18.10;16.40;;;3.60;99.90;;;;;;4934995;29;20182;-86
2023/12/20 07:53:26;;;;;;;26.53;23.87;;;3.70;99.90;;;;;;4920235;29;20643;-86
2023/12/20 07:55:52;;;;;;;18.73;16.70;;;3.80;99.90;;;;;;4922367;29;20186;-86
2023/12/20 07:58:18;;;;;;;9.43;6.77;;;3.90;99.90;;;;;;4922003;29;20603;-86
2023/12/20 08:00:44;;;;;;;7.70;7.00;;;4.00;99.90;;;;;;4922827;29;20241;-85
2023/12/20 08:03:09;;;;;;;13.83;4.60;;;4.20;99.90;;;;;;4922119;29;20258;-86
2023/12/20 08:05:36;;;;;;;4.97;4.47;;;4.40;99.90;;;;;;4922268;29;20178;-86
2023/12/20 08:08:02;;;;;;;6.83;4.30;;;4.50;99.90;;;;;;4921730;29;20202;-86
2023/12/20 08:10:29;;;;;;;5.47;4.90;;;4.40;99.90;;;;;;4922967;29;20186;-86
2023/12/20 08:12:55;;;;;;;8.07;5.33;;;4.40;99.90;;;;;;4922448;29;20175;-86
2023/12/20 08:15:21;;;;;;;7.87;5.30;;;4.50;99.90;;;;;;4922110;29;20177;-86
2023/12/20 08:17:47;;;;;;;7.67;5.10;;;4.60;99.90;;;;;;4922195;29;20294;-86
2023/12/20 08:20:12;;;;;;;6.70;5.13;;;4.60;99.90;;;;;;4922217;29;20198;-86
2023/12/20 08:22:38;;;;;;;11.63;9.90;;;4.70;99.90;;;;;;4922280;29;20218;-86
2023/12/20 08:25:04;;;;;;;9.00;5.30;;;4.70;99.90;;;;;;4921937;29;20191;-85
2023/12/20 08:27:31;;;;;;;8.67;6.77;;;4.70;99.90;;;;;;4922356;29;20206;-86
2023/12/20 08:29:57;;;;;;;9.27;5.77;;;4.70;99.90;;;;;;4922113;29;20662;-85
2023/12/20 08:32:26;;;;;;;6.03;4.90;;;4.70;99.90;;;;;;4922489;29;20174;-84
2023/12/20 08:34:55;;;;;;;6.57;5.57;;;4.80;99.90;;;;;;4922146;29;20182;-84
2023/12/20 08:37:25;;;;;;;6.33;5.67;;;4.90;99.90;;;;;;4921546;29;20198;-86
2023/12/20 08:39:50;;;;;;;5.73;4.17;;;5.00;99.90;;;;;;4921277;29;20208;-86
2023/12/20 08:42:16;;;;;;;5.43;4.33;;;5.00;99.90;;;;;;4921563;29;20210;-86
2023/12/20 08:44:42;;;;;;;10.32;6.10;;;5.10;99.90;;;;;;4922067;29;20524;-86
2023/12/20 08:47:08;;;;;;;22.57;20.47;;;5.10;99.90;;;;;;4921298;29;20258;-86
2023/12/20 08:49:34;;;;;;;18.50;16.73;;;5.10;99.90;;;;;;4921185;29;20669;-86
2023/12/20 08:51:59;;;;;;;67.50;50.97;;;5.10;99.90;;;;;;4921235;29;20170;-86
2023/12/20 08:54:25;;;;;;;47.30;35.77;;;5.00;99.90;;;;;;4921372;29;20237;-86
2023/12/20 08:56:51;;;;;;;20.67;18.47;;;5.00;99.90;;;;;;4921286;29;20236;-86
2023/12/20 08:59:18;;;;;;;9.13;6.30;;;5.00;99.90;;;;;;4921740;29;20181;-86
2023/12/20 09:01:44;;;;;;;10.67;8.20;;;5.00;99.90;;;;;;4921182;29;20210;-86
2023/12/20 09:04:10;;;;;;;8.83;5.90;;;4.90;99.90;;;;;;4921217;29;20182;-86
2023/12/20 09:06:35;;;;;;;7.47;5.73;;;5.00;99.90;;;;;;4920915;29;20201;-86
2023/12/20 09:09:01;;;;;;;7.87;4.90;;;5.10;99.90;;;;;;4921374;29;20653;-86
2023/12/20 09:11:27;;;;;;;10.00;7.70;;;5.20;99.90;;;;;;4921388;29;20190;-86
2023/12/20 09:13:53;;;;;;;10.47;6.70;;;5.30;99.90;;;;;;4921815;29;20178;-86
2023/12/20 09:16:19;;;;;;;7.82;4.93;;;5.30;99.90;;;;;;4921328;29;20182;-86
2023/12/20 09:18:44;;;;;;;8.10;4.03;;;5.40;99.90;;;;;;4920825;29;20186;-86
2023/12/20 09:21:10;;;;;;;8.07;3.70;;;5.40;99.90;;;;;;4920881;29;20337;-86
2023/12/20 09:23:38;;;;;;;8.20;4.23;;;5.50;99.90;;;;;;4921164;29;20183;-86
2023/12/20 09:26:04;;;;;;;9.57;3.70;;;5.60;99.90;;;;;;4920651;29;20182;-86
2023/12/20 09:28:32;;;;;;;11.48;9.93;;;5.60;99.90;;;;;;4920511;29;20201;-86
2023/12/20 09:30:58;;;;;;;15.00;10.90;;;5.60;99.90;;;;;;4921067;29;20206;-86
2023/12/20 09:33:24;;;;;;;12.30;6.70;;;5.60;99.90;;;;;;4920648;29;20674;-86
2023/12/20 09:35:50;;;;;;;9.48;7.72;;;5.60;99.90;;;;;;4921508;29;20186;-86
2023/12/20 09:38:17;;;;;;;6.03;4.18;;;5.70;99.90;;;;;;4922405;29;20338;-85
2023/12/20 09:40:43;;;;;;;5.22;3.70;;;5.70;99.90;;;;;;4920815;29;20214;-85
2023/12/20 09:43:18;;;;;;;6.90;4.32;;;5.80;99.90;;;;;;4923841;29;20213;-85
2023/12/20 09:45:47;;;;;;;10.27;3.10;;;5.80;99.90;;;;;;4923852;29;20175;-86
2023/12/20 09:48:14;;;;;;;11.32;2.95;;;5.90;99.90;;;;;;4920241;29;20693;-86
2023/12/20 09:50:40;;;;;;;5.47;2.78;;;5.90;99.90;;;;;;4920901;29;20192;-86
2023/12/20 09:53:09;;;;;;;7.80;3.78;;;6.00;99.90;;;;;;4920520;29;20186;-86
2023/12/20 09:55:36;;;;;;;8.25;3.72;;;6.10;99.90;;;;;;4920144;29;20214;-86
2023/12/20 09:58:03;;;;;;;5.88;3.92;;;6.10;99.90;;;;;;4920148;29;20293;-86
2023/12/20 10:00:29;;;;;;;7.72;3.13;;;6.10;99.90;;;;;;4921037;29;20186;-85
2023/12/20 10:02:59;;;;;;;8.45;3.38;;;6.20;99.90;;;;;;4920111;29;20203;-84
2023/12/20 10:05:30;;;;;;;7.72;3.95;;;6.30;99.90;;;;;;4920166;29;20182;-84
2023/12/20 10:07:57;;;;;;;7.80;3.58;;;6.20;99.90;;;;;;4919770;29;20236;-84
2023/12/20 10:10:23;;;;;;;12.20;7.18;;;6.10;99.90;;;;;;4935527;29;20281;-84
2023/12/20 10:13:03;;;;;;;11.52;7.18;;;6.30;99.90;;;;;;4920038;29;20273;-84
2023/12/20 10:15:29;;;;;;;10.02;6.45;;;6.30;99.90;;;;;;4920471;29;20206;-84
2023/12/20 10:17:54;;;;;;;8.82;3.40;;;6.40;99.90;;;;;;4919433;29;20590;-84
2023/12/20 10:20:20;;;;;;;9.30;5.03;;;6.50;99.90;;;;;;4919864;29;20178;-84
2023/12/20 10:22:47;;;;;;;8.10;3.90;;;6.60;99.90;;;;;;4919976;29;20294;-84
2023/12/20 10:25:13;;;;;;;5.63;3.50;;;6.90;99.90;;;;;;4919883;29;20178;-84
2023/12/20 10:27:41;;;;;;;8.18;3.10;;;7.20;99.90;;;;;;4919833;29;20198;-84
2023/12/20 10:30:07;;;;;;;7.97;3.13;;;7.30;99.90;;;;;;4919682;29;20204;-84
2023/12/20 10:32:33;;;;;;;8.10;2.25;;;7.30;99.90;;;;;;4919441;29;20182;-84
2023/12/20 10:34:59;;;;;;;5.05;2.50;;;7.20;99.90;;;;;;4919572;29;20178;-84
2023/12/20 10:37:25;;;;;;;5.15;2.35;;;7.20;99.90;;;;;;4935406;29;20257;-84
2023/12/20 10:39:56;;;;;;;6.30;2.65;;;7.10;99.90;;;;;;4927097;29;20205;-84
2023/12/20 10:42:22;;;;;;;4.85;2.10;;;6.90;99.90;;;;;;4920390;29;20204;-84
2023/12/20 10:44:50;;;;;;;7.43;2.42;;;6.70;99.90;;;;;;4920607;29;20209;-84
2023/12/20 10:47:17;;;;;;;4.10;2.35;;;6.60;99.90;;;;;;4920276;29;20203;-84
2023/12/20 10:49:44;;;;;;;5.40;2.58;;;6.60;99.90;;;;;;4919646;29;20186;-84
2023/12/20 10:52:12;;;;;;;7.10;2.58;;;6.50;99.90;;;;;;4920196;29;20186;-84
2023/12/20 10:54:42;;;;;;;5.63;2.40;;;6.40;99.90;;;;;;4919407;29;20182;-84
2023/12/20 10:57:07;;;;;;;6.38;2.30;;;6.40;99.90;;;;;;4919454;29;20206;-84
2023/12/20 10:59:36;;;;;;;6.20;2.10;;;6.50;99.90;;;;;;4919301;29;20193;-84
2023/12/20 11:02:05;;;;;;;14.27;12.40;;;6.50;99.90;;;;;;4919057;29;20210;-84
2023/12/20 11:04:55;;;;;;;15.15;12.15;;;6.50;99.90;;;;;;4919105;29;20189;-84
2023/12/20 11:07:34;;;;;;;39.67;28.40;;;6.50;99.90;;;;;;4923801;29;20206;-84
2023/12/20 11:10:11;;;;;;;9.77;6.15;;;6.40;99.90;;;;;;4935213;29;20171;-84
2023/12/20 11:12:53;;;;;;;8.63;5.13;;;6.40;99.90;;;;;;4934928;29;20564;-84
2023/12/20 11:15:20;;;;;;;7.82;4.60;;;6.60;99.90;;;;;;4919116;29;20182;-84
2023/12/20 11:17:46;;;;;;;7.32;4.25;;;6.90;99.90;;;;;;4918884;29;20342;-84
2023/12/20 11:20:13;;;;;;;6.80;4.28;;;7.10;99.90;;;;;;4918964;29;20277;-84
2023/12/20 11:22:51;;;;;;;6.30;3.78;;;7.20;99.90;;;;;;4918769;29;20214;-84
2023/12/20 11:25:17;;;;;;;4.18;2.63;;;7.30;99.90;;;;;;4918871;29;20658;-84
2023/12/20 11:27:43;;;;;;;6.80;4.63;;;7.40;99.90;;;;;;4919630;29;20241;-84
2023/12/20 11:30:09;;;;;;;5.43;3.33;;;7.50;99.90;;;;;;4922704;29;20277;-84
2023/12/20 11:32:39;;;;;;;4.85;2.70;;;7.40;99.90;;;;;;4933331;29;20189;-84
2023/12/20 11:35:08;;;;;;;4.95;3.00;;;7.30;99.90;;;;;;4938959;29;20178;-84
2023/12/20 11:37:38;;;;;;;6.38;2.95;;;7.20;99.90;;;;;;4938486;29;20229;-84
2023/12/20 11:40:07;;;;;;;5.82;2.10;;;7.10;99.90;;;;;;4938664;29;20221;-84
2023/12/20 11:42:37;;;;;;;6.68;2.65;;;6.90;99.90;;;;;;4938622;29;20202;-84
2023/12/20 11:45:03;;;;;;;25.13;22.15;;;6.80;99.90;;;;;;4938443;29;20167;-84
2023/12/20 11:47:31;;;;;;;9.63;7.50;;;6.70;99.90;;;;;;4938246;29;20293;-84
2023/12/20 11:49:57;;;;;;;5.70;4.13;;;6.60;99.90;;;;;;4938345;29;20257;-84
2023/12/20 11:52:23;;;;;;;6.18;3.22;;;6.50;99.90;;;;;;4938095;29;20225;-84
2023/12/20 11:54:48;;;;;;;5.97;2.58;;;6.50;99.90;;;;;;4938158;29;20209;-84
2023/12/20 11:57:14;;;;;;;5.85;2.63;;;6.40;99.90;;;;;;4938567;29;20206;-84
2023/12/20 11:59:40;;;;;;;6.22;2.42;;;6.50;99.90;;;;;;4938399;29;20178;-84
2023/12/20 12:02:06;;;;;;;9.07;3.40;;;6.50;99.90;;;;;;4937841;29;20214;-84
2023/12/20 12:04:31;;;;;;;8.32;3.25;;;6.60;99.90;;;;;;4939093;29;20242;-84
2023/12/20 12:06:57;;;;;;;7.55;2.55;;;6.50;99.90;;;;;;4938724;29;20202;-84
2023/12/20 12:09:23;;;;;;;9.57;2.60;;;6.50;99.90;;;;;;4938192;29;20205;-84
2023/12/20 12:11:49;;;;;;;6.80;2.50;;;6.50;99.90;;;;;;4953788;29;20194;-84
2023/12/20 12:14:15;;;;;;;9.23;2.75;;;6.40;99.90;;;;;;4938101;29;20182;-84
2023/12/20 12:16:43;;;;;;;7.28;3.00;;;6.40;99.90;;;;;;4937964;29;20212;-84
2023/12/20 12:19:24;;;;;;;13.20;2.88;;;6.40;99.90;;;;;;4937936;29;20212;-84
2023/12/20 12:21:50;;;;;;;10.65;3.30;;;6.40;99.90;;;;;;4938411;29;20335;-84
2023/12/20 12:24:23;;;;;;;8.07;2.78;;;6.30;99.90;;;;;;4938360;29;20185;-84
2023/12/20 12:26:52;;;;;;;7.72;3.05;;;6.30;99.90;;;;;;4937773;29;20206;-84
2023/12/20 12:29:18;;;;;;;9.43;2.72;;;6.20;99.90;;;;;;4938367;29;20251;-84
2023/12/20 12:31:43;;;;;;;7.57;2.83;;;6.20;99.90;;;;;;4938269;29;20210;-84
2023/12/20 12:34:09;;;;;;;7.88;3.00;;;6.20;99.90;;;;;;4938414;29;20246;-84
2023/12/20 12:36:35;;;;;;;8.77;2.83;;;6.20;99.90;;;;;;4937503;29;20198;-84
2023/12/20 12:39:04;;;;;;;7.53;2.90;;;6.20;99.90;;;;;;4936955;29;20242;-84
2023/12/20 12:41:30;;;;;;;5.82;2.50;;;6.20;99.90;;;;;;4937877;29;20649;-84
2023/12/20 12:43:56;;;;;;;10.90;2.90;;;6.20;99.90;;;;;;4938094;29;20182;-84
2023/12/20 12:46:22;;;;;;;8.50;2.72;;;6.20;99.90;;;;;;4937118;29;20269;-84
2023/12/20 12:48:49;;;;;;;10.45;2.72;;;6.20;99.90;;;;;;4937068;29;20249;-84
2023/12/20 12:51:14;;;;;;;8.60;3.10;;;6.30;99.90;;;;;;4937260;29;20186;-84
2023/12/20 12:53:40;;;;;;;8.15;2.65;;;6.30;99.90;;;;;;4937356;29;20221;-84
2023/12/20 12:56:06;;;;;;;8.25;2.53;;;6.30;99.90;;;;;;4937190;29;20182;-84
2023/12/20 12:58:32;;;;;;;8.15;2.70;;;6.30;99.90;;;;;;4937339;29;20190;-84
2023/12/20 13:00:58;;;;;;;7.63;2.45;;;6.30;99.90;;;;;;4937560;29;20217;-84
2023/12/20 13:03:24;;;;;;;8.27;2.65;;;6.30;99.90;;;;;;4937305;29;20182;-84
2023/12/20 13:05:50;;;;;;;9.18;4.13;;;6.30;99.90;;;;;;4937551;29;20162;-84
2023/12/20 13:08:16;;;;;;;7.07;2.65;;;6.30;99.90;;;;;;4937415;29;20202;-86
2023/12/20 13:10:42;;;;;;;8.60;2.83;;;6.30;99.90;;;;;;4938272;29;20178;-87
2023/12/20 13:13:08;;;;;;;5.93;2.38;;;6.20;99.90;;;;;;4950083;29;20194;-87
2023/12/20 13:15:34;;;;;;;7.53;3.17;;;6.20;99.90;;;;;;4934749;29;20688;-87
2023/12/20 13:18:00;;;;;;;7.90;2.40;;;6.20;99.90;;;;;;4933989;29;20195;-86
2023/12/20 13:20:26;;;;;;;7.65;2.65;;;6.20;99.90;;;;;;4934818;29;20207;-87
2023/12/20 13:22:51;;;;;;;8.02;2.80;;;6.20;99.90;;;;;;4934319;29;20190;-87
2023/12/20 13:25:17;;;;;;;5.50;2.50;;;6.20;99.90;;;;;;4933677;29;20184;-87
2023/12/20 13:27:44;;;;;;;18.85;13.43;;;6.30;99.90;;;;;;4933219;29;20206;-87
2023/12/20 13:30:12;;;;;;;15.32;7.75;;;6.30;99.90;;;;;;4934477;29;20179;-86
2023/12/20 13:32:38;;;;;;;10.43;4.40;;;6.40;99.90;;;;;;4933529;29;20281;-86
2023/12/20 13:35:04;;;;;;;5.47;3.05;;;6.60;99.90;;;;;;4933494;29;20210;-87